createdAt,value
2023-04-01T00:00:49.433Z,96265.66
2023-04-01T00:03:16.283Z,96256.84
2023-04-01T00:05:42.791Z,96263.13
2023-04-01T00:08:09.310Z,96264.94
2023-04-01T00:10:38.224Z,96268.25
2023-04-01T00:13:04.730Z,96262.88
2023-04-01T00:15:31.414Z,96259.44
2023-04-01T00:17:58.168Z,96258.22
2023-04-01T00:20:24.678Z,96255.22
2023-04-01T00:22:51.479Z,96257.72
2023-04-01T00:25:18.041Z,96253.91
2023-04-01T00:27:44.507Z,96253.84
2023-04-01T00:30:11.536Z,96245.88
2023-04-01T00:32:38.073Z,96244.22
2023-04-01T00:35:05.266Z,96256.69
2023-04-01T00:37:31.725Z,96249.69
2023-04-01T00:39:58.611Z,96245.41
2023-04-01T00:42:25.146Z,96244.91
2023-04-01T00:44:52.524Z,96242.22
2023-04-01T00:47:19.424Z,96241.38
2023-04-01T00:49:51.029Z,96242.22
2023-04-01T00:52:23.716Z,96233.75
2023-04-01T00:54:52.827Z,96228.53
2023-04-01T00:57:33.677Z,96224.25
2023-04-01T01:00:00.687Z,96222.56
2023-04-01T01:02:27.395Z,96215.09
2023-04-01T01:04:53.929Z,96219.47
2023-04-01T01:07:26.252Z,96224.13
2023-04-01T01:09:58.942Z,96211.16
2023-04-01T01:12:44.387Z,96215.16
2023-04-01T01:15:24.513Z,96212.25
2023-04-01T01:18:10.052Z,96208.06
2023-04-01T01:20:45.789Z,96204.28
2023-04-01T01:23:24.264Z,96208.19
2023-04-01T01:25:59.780Z,96206.81
2023-04-01T01:28:38.476Z,96210.41
2023-04-01T01:31:14.091Z,96212.13
2023-04-01T01:33:46.363Z,96207.38
2023-04-01T01:36:14.750Z,96204.16
2023-04-01T01:38:41.409Z,96204.88
2023-04-01T01:41:10.259Z,96196.19
2023-04-01T01:43:40.254Z,96185.91
2023-04-01T01:46:10.549Z,96191.41
2023-04-01T01:48:37.676Z,96195.00
2023-04-01T01:51:06.504Z,96187.50
2023-04-01T01:53:33.238Z,96179.63
2023-04-01T01:56:00.109Z,96175.53
2023-04-01T01:58:32.740Z,96168.66
2023-04-01T02:01:05.677Z,96162.47
2023-04-01T02:03:34.177Z,96162.00
2023-04-01T02:06:01.696Z,96164.00
2023-04-01T02:08:34.647Z,96169.13
2023-04-01T02:11:02.872Z,96167.75
2023-04-01T02:13:38.944Z,96169.88
2023-04-01T02:16:11.768Z,96171.88
2023-04-01T02:18:39.366Z,96169.72
2023-04-01T02:21:06.976Z,96167.75
2023-04-01T02:23:36.230Z,96160.75
2023-04-01T02:26:03.853Z,96160.78
2023-04-01T02:28:31.676Z,96162.78
2023-04-01T02:31:01.186Z,96156.06
2023-04-01T02:33:28.385Z,96170.13
2023-04-01T02:35:54.971Z,96176.34
2023-04-01T02:38:21.751Z,96176.19
2023-04-01T02:40:50.617Z,96184.91
2023-04-01T02:43:18.391Z,96176.88
2023-04-01T02:45:44.870Z,96182.91
2023-04-01T02:48:11.469Z,96183.63
2023-04-01T02:50:37.957Z,96179.59
2023-04-01T02:53:04.852Z,96173.22
2023-04-01T02:55:32.489Z,96180.22
2023-04-01T02:57:59.561Z,96172.34
2023-04-01T03:00:27.240Z,96174.81
2023-04-01T03:02:54.336Z,96178.13
2023-04-01T03:05:21.338Z,96182.53
2023-04-01T03:07:47.853Z,96178.88
2023-04-01T03:10:14.493Z,96188.97
2023-04-01T03:12:41.413Z,96188.47
2023-04-01T03:15:10.431Z,96188.63
2023-04-01T03:17:39.346Z,96198.00
2023-04-01T03:20:06.362Z,96203.72
2023-04-01T03:22:32.900Z,96206.03
2023-04-01T03:24:59.406Z,96212.56
2023-04-01T03:27:25.913Z,96213.91
2023-04-01T03:29:52.823Z,96214.41
2023-04-01T03:32:19.728Z,96219.75
2023-04-01T03:34:46.263Z,96224.78
2023-04-01T03:37:12.934Z,96212.19
2023-04-01T03:39:39.449Z,96215.59
2023-04-01T03:42:07.545Z,96215.59
2023-04-01T03:44:34.686Z,96218.09
2023-04-01T03:47:01.518Z,96218.41
2023-04-01T03:49:28.749Z,96230.66
2023-04-01T03:51:55.565Z,96226.63
2023-04-01T03:54:23.003Z,96227.78
2023-04-01T03:56:49.485Z,96233.66
2023-04-01T03:59:16.329Z,96229.97
2023-04-01T04:01:42.846Z,96227.97
2023-04-01T04:04:11.671Z,96231.50
2023-04-01T04:06:38.220Z,96227.13
2023-04-01T04:09:04.965Z,96238.00
2023-04-01T04:11:31.757Z,96233.13
2023-04-01T04:13:58.390Z,96242.88
2023-04-01T04:16:25.035Z,96246.22
2023-04-01T04:18:57.359Z,96247.22
2023-04-01T04:21:24.035Z,96247.91
2023-04-01T04:23:51.561Z,96250.91
2023-04-01T04:26:19.453Z,96247.72
2023-04-01T04:28:59.894Z,96246.88
2023-04-01T04:31:26.851Z,96255.91
2023-04-01T04:33:55.791Z,96244.69
2023-04-01T04:36:23.021Z,96232.16
2023-04-01T04:38:51.026Z,96241.88
2023-04-01T04:41:19.174Z,96231.66
2023-04-01T04:43:53.473Z,96227.78
2023-04-01T04:46:20.614Z,96218.09
2023-04-01T04:48:49.880Z,96227.78
2023-04-01T04:51:17.303Z,96219.78
2023-04-01T04:53:44.154Z,96229.78
2023-04-01T04:56:11.294Z,96231.50
2023-04-01T04:58:44.266Z,96227.81
2023-04-01T05:01:16.887Z,96219.41
2023-04-01T05:03:43.976Z,96225.44
2023-04-01T05:06:11.098Z,96212.22
2023-04-01T05:08:39.712Z,96231.50
2023-04-01T05:11:08.593Z,96230.66
2023-04-01T05:13:35.399Z,96237.19
2023-04-01T05:16:01.889Z,96238.19
2023-04-01T05:18:28.403Z,96239.16
2023-04-01T05:20:55.699Z,96239.28
2023-04-01T05:23:23.067Z,96238.81
2023-04-01T05:25:50.807Z,96243.66
2023-04-01T05:28:17.732Z,96242.63
2023-04-01T05:30:46.428Z,96243.97
2023-04-01T05:33:24.540Z,96242.75
2023-04-01T05:35:51.311Z,96245.81
2023-04-01T05:38:17.869Z,96249.81
2023-04-01T05:40:44.412Z,96249.47
2023-04-01T05:43:10.991Z,96249.19
2023-04-01T05:45:38.428Z,96250.16
2023-04-01T05:48:27.609Z,96253.78
2023-04-01T05:50:54.256Z,96252.31
2023-04-01T05:53:20.896Z,96254.78
2023-04-01T05:55:47.472Z,96255.00
2023-04-01T05:58:14.309Z,96252.00
2023-04-01T06:00:43.893Z,96252.03
2023-04-01T06:03:10.576Z,96251.09
2023-04-01T06:05:43.964Z,96247.66
2023-04-01T06:08:19.809Z,96234.66
2023-04-01T06:11:02.402Z,96247.06
2023-04-01T06:13:28.923Z,96243.19
2023-04-01T06:16:06.756Z,96250.72
2023-04-01T06:18:33.190Z,96250.88
2023-04-01T06:21:18.539Z,96247.63
2023-04-01T06:23:59.986Z,96245.84
2023-04-01T06:26:44.981Z,96244.28
2023-04-01T06:29:11.459Z,96241.66
2023-04-01T06:31:57.045Z,96239.19
2023-04-01T06:34:28.473Z,96242.09
2023-04-01T06:37:14.165Z,96238.41
2023-04-01T06:40:07.407Z,96241.19
2023-04-01T06:42:39.062Z,96239.06
2023-04-01T06:45:26.356Z,96244.72
2023-04-01T06:48:37.592Z,96246.41
2023-04-01T06:51:44.773Z,96252.13
2023-04-01T06:54:43.274Z,96249.97
2023-04-01T06:57:48.078Z,96264.38
2023-04-01T07:00:25.638Z,96261.28
2023-04-01T07:02:59.702Z,96269.00
2023-04-01T07:05:30.540Z,96271.13
2023-04-01T07:07:59.009Z,96277.00
2023-04-01T07:10:47.058Z,96275.94
2023-04-01T07:13:49.026Z,96279.97
2023-04-01T07:16:26.569Z,96275.13
2023-04-01T07:18:55.834Z,96281.78
2023-04-01T07:21:31.436Z,96278.06
2023-04-01T07:24:10.038Z,96272.34
2023-04-01T07:26:42.660Z,96277.75
2023-04-01T07:29:15.536Z,96275.97
2023-04-01T07:31:50.616Z,96274.28
2023-04-01T07:34:20.178Z,96277.00
2023-04-01T07:37:07.517Z,96278.56
2023-04-01T07:39:55.977Z,96282.78
2023-04-01T07:42:37.797Z,96282.53
2023-04-01T07:45:31.035Z,96289.81
2023-04-01T07:48:01.134Z,96284.28
2023-04-01T07:50:31.167Z,96277.00
2023-04-01T07:53:16.638Z,96283.84
2023-04-01T07:56:05.989Z,96284.13
2023-04-01T07:58:41.081Z,96283.56
2023-04-01T08:01:23.835Z,96283.69
2023-04-01T08:04:03.310Z,96284.03
2023-04-01T08:06:33.247Z,96283.94
2023-04-01T08:09:18.490Z,96278.75
2023-04-01T08:12:15.653Z,96276.53
2023-04-01T08:15:28.783Z,96284.72
2023-04-01T08:18:23.824Z,96279.28
2023-04-01T08:20:56.501Z,96281.63
2023-04-01T08:23:31.968Z,96278.53
2023-04-01T08:26:01.463Z,96272.84
2023-04-01T08:28:36.045Z,96278.97
2023-04-01T08:31:14.815Z,96281.84
2023-04-01T08:33:45.690Z,96283.41
2023-04-01T08:36:20.137Z,96285.75
2023-04-01T08:39:00.796Z,96286.81
2023-04-01T08:41:39.892Z,96289.94
2023-04-01T08:44:30.821Z,96284.56
2023-04-01T08:47:06.867Z,96289.34
2023-04-01T08:49:53.715Z,96284.63
2023-04-01T08:52:47.797Z,96287.31
2023-04-01T08:55:33.511Z,96290.41
2023-04-01T08:58:18.070Z,96292.81
2023-04-01T09:01:04.807Z,96288.22
2023-04-01T09:03:59.283Z,96296.84
2023-04-01T09:06:41.122Z,96298.00
2023-04-01T09:09:07.638Z,96290.31
2023-04-01T09:11:53.785Z,96293.81
2023-04-01T09:14:43.074Z,96293.38
2023-04-01T09:17:25.199Z,96300.03
2023-04-01T09:19:57.831Z,96301.09
2023-04-01T09:22:43.323Z,96314.75
2023-04-01T09:25:25.956Z,96315.13
2023-04-01T09:27:57.395Z,96307.97
2023-04-01T09:30:26.698Z,96315.44
2023-04-01T09:33:12.094Z,96322.69
2023-04-01T09:35:49.396Z,96310.56
2023-04-01T09:38:35.904Z,96314.13
2023-04-01T09:41:17.870Z,96311.06
2023-04-01T09:44:04.808Z,96309.97
2023-04-01T09:46:41.637Z,96307.66
2023-04-01T09:49:27.155Z,96314.66
2023-04-01T09:52:10.885Z,96318.91
2023-04-01T09:55:03.808Z,96326.38
2023-04-01T09:57:30.826Z,96317.50
2023-04-01T10:00:30.376Z,96312.63
2023-04-01T10:03:14.221Z,96322.66
2023-04-01T10:05:57.250Z,96316.66
2023-04-01T10:08:43.211Z,96321.19
2023-04-01T10:11:39.080Z,96321.91
2023-04-01T10:14:08.706Z,96323.59
2023-04-01T10:16:55.518Z,96321.38
2023-04-01T10:19:40.890Z,96327.41
2023-04-01T10:22:21.531Z,96319.19
2023-04-01T10:24:57.031Z,96313.72
2023-04-01T10:27:26.788Z,96316.34
2023-04-01T10:30:23.565Z,96317.78
2023-04-01T10:33:16.188Z,96319.94
2023-04-01T10:35:46.077Z,96319.03
2023-04-01T10:38:31.056Z,96317.56
2023-04-01T10:41:06.662Z,96313.34
2023-04-01T10:44:07.130Z,96315.28
2023-04-01T10:47:03.889Z,96319.03
2023-04-01T10:49:43.465Z,96310.91
2023-04-01T10:52:22.577Z,96317.69
2023-04-01T10:55:16.791Z,96316.06
2023-04-01T10:58:20.817Z,96312.50
2023-04-01T11:01:21.270Z,96313.47
2023-04-01T11:04:26.972Z,96312.44
2023-04-01T11:07:25.661Z,96317.09
2023-04-01T11:09:55.280Z,96317.00
2023-04-01T11:12:32.686Z,96316.72
2023-04-01T11:15:11.834Z,96313.63
2023-04-01T11:17:58.252Z,96317.50
2023-04-01T11:20:34.478Z,96315.19
2023-04-01T11:23:01.213Z,96317.97
2023-04-01T11:25:41.821Z,96318.09
2023-04-01T11:28:46.033Z,96320.13
2023-04-01T11:31:23.789Z,96312.19
2023-04-01T11:33:51.410Z,96314.75
2023-04-01T11:36:37.089Z,96307.72
2023-04-01T11:39:22.524Z,96314.88
2023-04-01T11:42:26.942Z,96301.78
2023-04-01T11:45:14.827Z,96307.56
2023-04-01T11:47:53.177Z,96307.47
2023-04-01T11:50:33.201Z,96294.56
2023-04-01T11:53:08.647Z,96302.88
2023-04-01T11:55:38.442Z,96303.94
2023-04-01T11:58:14.689Z,96303.00
2023-04-01T12:00:59.658Z,96313.28
2023-04-01T12:03:29.278Z,96308.13
2023-04-01T12:05:59.830Z,96308.59
2023-04-01T12:08:35.103Z,96304.88
2023-04-01T12:11:08.044Z,96311.19
2023-04-01T12:13:37.571Z,96305.00
2023-04-01T12:16:10.154Z,96299.81
2023-04-01T12:18:43.683Z,96305.75
2023-04-01T12:21:19.611Z,96306.28
2023-04-01T12:24:14.277Z,96302.50
2023-04-01T12:26:43.802Z,96308.66
2023-04-01T12:29:13.712Z,96302.47
2023-04-01T12:31:46.413Z,96305.38
2023-04-01T12:34:31.664Z,96302.66
2023-04-01T12:37:17.712Z,96295.91
2023-04-01T12:40:14.792Z,96300.03
2023-04-01T12:42:59.962Z,96292.13
2023-04-01T12:45:45.531Z,96301.06
2023-04-01T12:48:20.180Z,96296.22
2023-04-01T12:51:05.660Z,96300.31
2023-04-01T12:53:47.240Z,96288.69
2023-04-01T12:56:34.094Z,96289.22
2023-04-01T12:59:06.710Z,96274.78
2023-04-01T13:01:52.345Z,96280.97
2023-04-01T13:04:27.876Z,96289.94
2023-04-01T13:07:01.782Z,96275.81
2023-04-01T13:09:37.596Z,96282.59
2023-04-01T13:12:18.759Z,96275.91
2023-04-01T13:15:06.258Z,96270.84
2023-04-01T13:17:33.091Z,96255.13
2023-04-01T13:20:18.644Z,96269.41
2023-04-01T13:22:54.238Z,96266.59
2023-04-01T13:25:38.939Z,96263.28
2023-04-01T13:28:26.862Z,96264.28
2023-04-01T13:30:59.493Z,96265.47
2023-04-01T13:33:37.921Z,96267.81
2023-04-01T13:36:09.723Z,96256.34
2023-04-01T13:38:39.351Z,96253.19
2023-04-01T13:41:21.289Z,96255.44
2023-04-01T13:43:53.694Z,96254.53
2023-04-01T13:46:20.323Z,96251.19
2023-04-01T13:48:46.828Z,96248.34
2023-04-01T13:51:42.801Z,96242.16
2023-04-01T13:54:21.404Z,96234.44
2023-04-01T13:57:06.760Z,96234.72
2023-04-01T14:00:00.723Z,96236.22
2023-04-01T14:02:51.657Z,96224.63
2023-04-01T14:05:43.089Z,96222.41
2023-04-01T14:08:16.411Z,96232.22
2023-04-01T14:10:45.958Z,96215.69
2023-04-01T14:13:36.327Z,96214.81
2023-04-01T14:16:14.076Z,96215.03
2023-04-01T14:19:13.076Z,96218.09
2023-04-01T14:21:47.845Z,96205.28
2023-04-01T14:24:20.457Z,96205.91
2023-04-01T14:27:20.586Z,96199.31
2023-04-01T14:30:07.065Z,96208.03
2023-04-01T14:32:33.538Z,96195.78
2023-04-01T14:35:19.076Z,96200.06
2023-04-01T14:38:00.717Z,96201.13
2023-04-01T14:40:28.502Z,96199.81
2023-04-01T14:42:54.912Z,96195.34
2023-04-01T14:45:41.602Z,96193.50
2023-04-01T14:48:26.539Z,96199.38
2023-04-01T14:50:58.652Z,96199.97
2023-04-01T14:53:29.060Z,96198.41
2023-04-01T14:55:56.267Z,96193.59
2023-04-01T14:58:26.212Z,96190.53
2023-04-01T15:01:01.032Z,96187.22
2023-04-01T15:03:33.583Z,96195.97
2023-04-01T15:06:19.093Z,96191.44
2023-04-01T15:09:05.965Z,96181.16
2023-04-01T15:11:35.552Z,96182.56
2023-04-01T15:14:04.889Z,96185.66
2023-04-01T15:16:47.893Z,96184.34
2023-04-01T15:19:29.685Z,96189.84
2023-04-01T15:21:59.178Z,96185.41
2023-04-01T15:24:27.445Z,96179.91
2023-04-01T15:27:01.507Z,96179.25
2023-04-01T15:29:38.548Z,96178.81
2023-04-01T15:32:17.227Z,96179.56
2023-04-01T15:34:53.002Z,96174.09
2023-04-01T15:37:27.924Z,96184.22
2023-04-01T15:39:54.431Z,96177.09
2023-04-01T15:42:45.743Z,96177.66
2023-04-01T15:45:12.164Z,96175.44
2023-04-01T15:47:59.914Z,96177.97
2023-04-01T15:50:32.435Z,96179.47
2023-04-01T15:53:19.169Z,96178.50
2023-04-01T15:56:04.618Z,96174.81
2023-04-01T15:58:49.468Z,96185.44
2023-04-01T16:01:16.079Z,96180.66
2023-04-01T16:04:21.164Z,96185.63
2023-04-01T16:06:59.988Z,96183.03
2023-04-01T16:09:45.177Z,96175.53
2023-04-01T16:12:17.712Z,96178.19
2023-04-01T16:14:44.140Z,96177.91
2023-04-01T16:17:16.717Z,96190.22
2023-04-01T16:19:54.394Z,96191.16
2023-04-01T16:22:27.138Z,96196.03
2023-04-01T16:25:12.597Z,96191.19
2023-04-01T16:27:59.685Z,96188.91
2023-04-01T16:30:40.965Z,96197.09
2023-04-01T16:33:22.626Z,96195.91
2023-04-01T16:35:58.245Z,96190.59
2023-04-01T16:38:27.627Z,96193.91
2023-04-01T16:41:03.928Z,96193.53
2023-04-01T16:43:37.003Z,96197.81
2023-04-01T16:46:16.352Z,96207.31
2023-04-01T16:48:45.693Z,96213.84
2023-04-01T16:51:17.173Z,96213.22
2023-04-01T16:53:46.823Z,96216.06
2023-04-01T16:56:17.046Z,96221.31
2023-04-01T16:58:50.958Z,96227.22
2023-04-01T17:01:23.997Z,96222.72
2023-04-01T17:03:53.360Z,96229.66
2023-04-01T17:06:23.016Z,96235.88
2023-04-01T17:08:49.512Z,96233.84
2023-04-01T17:11:19.828Z,96241.72
2023-04-01T17:13:53.953Z,96249.91
2023-04-01T17:16:29.127Z,96250.06
2023-04-01T17:19:02.307Z,96256.44
2023-04-01T17:21:31.863Z,96268.59
2023-04-01T17:24:21.540Z,96265.69
2023-04-01T17:26:56.498Z,96273.81
2023-04-01T17:29:32.905Z,96279.03
2023-04-01T17:32:22.763Z,96279.31
2023-04-01T17:34:55.012Z,96285.53
2023-04-01T17:37:32.853Z,96289.56
2023-04-01T17:40:02.406Z,96291.66
2023-04-01T17:42:28.863Z,96294.59
2023-04-01T17:44:55.639Z,96298.38
2023-04-01T17:47:46.372Z,96308.47
2023-04-01T17:50:15.914Z,96311.31
2023-04-01T17:52:55.798Z,96313.78
2023-04-01T17:55:22.270Z,96326.34
2023-04-01T17:57:48.741Z,96332.22
2023-04-01T18:00:30.172Z,96344.31
2023-04-01T18:03:08.301Z,96343.06
2023-04-01T18:05:34.829Z,96342.66
2023-04-01T18:08:16.585Z,96339.31
2023-04-01T18:10:59.648Z,96358.91
2023-04-01T18:13:33.550Z,96351.84
2023-04-01T18:16:18.801Z,96363.03
2023-04-01T18:18:45.510Z,96364.34
2023-04-01T18:21:30.501Z,96375.56
2023-04-01T18:24:02.448Z,96370.13
2023-04-01T18:26:32.817Z,96371.81
2023-04-01T18:29:03.752Z,96374.09
2023-04-01T18:31:35.898Z,96377.38
2023-04-01T18:34:28.644Z,96378.88
2023-04-01T18:36:59.094Z,96390.91
2023-04-01T18:39:48.578Z,96392.78
2023-04-01T18:42:21.062Z,96393.03
2023-04-01T18:44:57.370Z,96398.22
2023-04-01T18:47:23.818Z,96395.09
2023-04-01T18:49:57.835Z,96415.09
2023-04-01T18:52:28.613Z,96421.34
2023-04-01T18:55:04.308Z,96431.22
2023-04-01T18:57:49.272Z,96434.75
2023-04-01T19:00:20.810Z,96438.59
2023-04-01T19:02:59.274Z,96447.09
2023-04-01T19:05:37.719Z,96450.22
2023-04-01T19:08:18.294Z,96448.84
2023-04-01T19:11:03.697Z,96453.69
2023-04-01T19:13:48.754Z,96454.41
2023-04-01T19:16:18.452Z,96463.63
2023-04-01T19:18:54.908Z,96473.19
2023-04-01T19:21:27.025Z,96469.25
2023-04-01T19:23:53.493Z,96467.44
2023-04-01T19:26:32.876Z,96474.22
2023-04-01T19:29:17.657Z,96470.31
2023-04-01T19:31:44.117Z,96475.81
2023-04-01T19:34:29.422Z,96478.91
2023-04-01T19:37:00.714Z,96479.56
2023-04-01T19:39:59.699Z,96474.34
2023-04-01T19:42:33.505Z,96473.22
2023-04-01T19:44:59.954Z,96476.97
2023-04-01T19:47:29.450Z,96472.88
2023-04-01T19:50:17.160Z,96477.50
2023-04-01T19:52:43.918Z,96470.88
2023-04-01T19:55:19.575Z,96482.88
2023-04-01T19:58:07.273Z,96486.06
2023-04-01T20:00:48.615Z,96490.16
2023-04-01T20:03:15.169Z,96487.38
2023-04-01T20:05:48.286Z,96495.00
2023-04-01T20:08:20.971Z,96496.94
2023-04-01T20:11:08.782Z,96500.94
2023-04-01T20:13:42.012Z,96511.53
2023-04-01T20:16:09.738Z,96503.38
2023-04-01T20:18:53.684Z,96507.81
2023-04-01T20:21:35.572Z,96507.22
2023-04-01T20:24:14.278Z,96511.78
2023-04-01T20:26:44.546Z,96508.59
2023-04-01T20:29:10.972Z,96509.44
2023-04-01T20:31:56.357Z,96514.69
2023-04-01T20:34:34.863Z,96511.44
2023-04-01T20:37:20.762Z,96519.34
2023-04-01T20:39:50.265Z,96523.34
2023-04-01T20:42:35.487Z,96528.91
2023-04-01T20:45:18.148Z,96534.59
2023-04-01T20:47:50.766Z,96544.34
2023-04-01T20:50:32.779Z,96543.97
2023-04-01T20:53:02.036Z,96552.97
2023-04-01T20:55:41.256Z,96552.88
2023-04-01T20:58:30.533Z,96559.88
2023-04-01T21:01:07.086Z,96563.13
2023-04-01T21:03:52.330Z,96571.09
2023-04-01T21:06:37.192Z,96565.34
2023-04-01T21:09:12.648Z,96561.88
2023-04-01T21:11:39.301Z,96564.94
2023-04-01T21:14:11.543Z,96563.94
2023-04-01T21:16:38.235Z,96567.75
2023-04-01T21:19:13.780Z,96568.44
2023-04-01T21:21:58.976Z,96568.25
2023-04-01T21:24:40.704Z,96573.53
2023-04-01T21:27:25.911Z,96583.13
2023-04-01T21:29:56.873Z,96577.13
2023-04-01T21:32:31.282Z,96577.47
2023-04-01T21:35:19.248Z,96570.69
2023-04-01T21:37:55.020Z,96575.78
2023-04-01T21:40:33.071Z,96573.16
2023-04-01T21:43:02.280Z,96577.34
2023-04-01T21:45:30.465Z,96577.53
2023-04-01T21:48:16.515Z,96584.25
2023-04-01T21:50:56.741Z,96584.16
2023-04-01T21:53:26.227Z,96591.88
2023-04-01T21:56:01.900Z,96591.31
2023-04-01T21:58:31.496Z,96593.34
2023-04-01T22:01:16.584Z,96589.53
2023-04-01T22:03:51.009Z,96592.94
2023-04-01T22:06:24.328Z,96588.25
2023-04-01T22:09:00.815Z,96585.94
2023-04-01T22:11:55.196Z,96592.69
2023-04-01T22:14:24.682Z,96590.53
2023-04-01T22:16:51.238Z,96591.19
2023-04-01T22:19:20.971Z,96590.53
2023-04-01T22:21:53.072Z,96582.69
2023-04-01T22:24:19.636Z,96592.06
2023-04-01T22:26:52.169Z,96594.97
2023-04-01T22:29:22.623Z,96601.03
2023-04-01T22:31:53.142Z,96597.44
2023-04-01T22:34:34.392Z,96601.50
2023-04-01T22:37:03.688Z,96600.75
2023-04-01T22:39:42.168Z,96602.81
2023-04-01T22:42:18.745Z,96606.81
2023-04-01T22:44:45.321Z,96607.91
2023-04-01T22:47:18.256Z,96614.97
2023-04-01T22:49:49.416Z,96610.03
2023-04-01T22:52:34.746Z,96610.03
2023-04-01T22:55:03.420Z,96615.75
2023-04-01T22:57:48.545Z,96616.97
2023-04-01T23:00:27.548Z,96615.66
2023-04-01T23:03:13.057Z,96618.53
2023-04-01T23:05:51.475Z,96626.44
2023-04-01T23:08:31.853Z,96623.16
2023-04-01T23:11:09.160Z,96618.66
2023-04-01T23:13:39.162Z,96615.38
2023-04-01T23:16:07.303Z,96616.69
2023-04-01T23:18:52.646Z,96614.13
2023-04-01T23:21:37.907Z,96617.41
2023-04-01T23:24:12.716Z,96617.06
2023-04-01T23:26:56.458Z,96621.66
2023-04-01T23:29:23.451Z,96618.41
2023-04-01T23:31:57.632Z,96632.28
2023-04-01T23:34:26.712Z,96626.25
2023-04-01T23:36:58.960Z,96627.44
2023-04-01T23:39:34.702Z,96626.25
2023-04-01T23:42:06.077Z,96633.66
2023-04-01T23:44:33.704Z,96625.94
2023-04-01T23:47:01.124Z,96628.63
2023-04-01T23:49:43.856Z,96628.53
2023-04-01T23:52:24.218Z,96631.69
2023-04-01T23:54:50.791Z,96626.28
2023-04-01T23:57:21.642Z,96627.63
